Time;durP1;ratioP1;P1;durP2;ratioP2;P2;SDS_P1;SDS_P2;PMS_P1;PMS_P2;Temp;Humidity;BMP_temperature;BMP_pressure;BME280_temperature;BME280_humidity;BME280_pressure;Samples;Min_cycle;Max_cycle;Signal;HPM_P1;HPM_P2
2023/02/25 00:01:13;;;;;;;1.92;0.57;;;28.50;92.10;;;;;;5046396;28;20478;-66
2023/02/25 00:03:41;;;;;;;4.28;1.00;;;28.70;90.60;;;;;;5046498;28;20033;-67
2023/02/25 00:06:14;;;;;;;5.38;0.70;;;28.70;92.20;;;;;;5046223;28;20025;-66
2023/02/25 00:08:45;;;;;;;2.28;0.70;;;28.80;91.30;;;;;;5045866;28;20090;-67
2023/02/25 00:11:15;;;;;;;5.25;0.77;;;29.20;92.10;;;;;;5046413;28;20509;-67
2023/02/25 00:13:43;;;;;;;2.03;0.50;;;29.40;90.50;;;;;;5043687;28;20022;-62
2023/02/25 00:16:12;;;;;;;2.75;0.70;;;29.40;90.20;;;;;;5045925;28;20079;-63
2023/02/25 00:18:43;;;;;;;3.90;0.73;;;29.50;90.20;;;;;;5047147;28;20105;-64
2023/02/25 00:21:19;;;;;;;1.65;0.50;;;29.60;85.90;;;;;;5030380;28;20059;-65
2023/02/25 00:23:48;;;;;;;6.25;1.08;;;29.60;88.50;;;;;;5043851;28;20047;-64
2023/02/25 00:26:17;;;;;;;4.53;0.55;;;29.20;86.30;;;;;;5046268;28;20036;-67
2023/02/25 00:28:45;;;;;;;5.15;0.70;;;29.30;84.00;;;;;;5047248;28;20377;-66
2023/02/25 00:31:21;;;;;;;3.35;0.70;;;29.30;89.20;;;;;;5038834;28;20129;-66
2023/02/25 00:33:49;;;;;;;2.47;0.55;;;28.90;84.00;;;;;;5041953;28;20737;-66
2023/02/25 00:36:20;;;;;;;3.97;0.73;;;28.90;86.70;;;;;;5046878;28;20094;-67
2023/02/25 00:38:49;;;;;;;3.70;0.70;;;29.20;87.60;;;;;;5047289;28;20576;-67
2023/02/25 00:41:19;;;;;;;4.97;0.85;;;29.50;85.80;;;;;;5045695;28;20048;-67
2023/02/25 00:43:54;;;;;;;3.20;0.50;;;29.40;78.10;;;;;;5046746;28;20073;-65
2023/02/25 00:46:22;;;;;;;3.15;0.85;;;29.10;81.10;;;;;;5047633;28;20014;-67
2023/02/25 00:48:50;;;;;;;4.30;0.82;;;29.20;82.00;;;;;;5049657;28;20025;-66
2023/02/25 00:51:21;;;;;;;2.03;0.60;;;29.60;82.70;;;;;;5048303;28;20021;-68
2023/02/25 00:53:49;;;;;;;2.15;0.73;;;29.90;83.60;;;;;;5030792;28;20025;-69
2023/02/25 00:56:18;;;;;;;2.30;0.50;;;30.20;80.80;;;;;;5044147;28;20090;-68
2023/02/25 00:58:47;;;;;;;2.35;0.60;;;30.20;81.00;;;;;;5047890;28;20063;-65
2023/02/25 01:01:21;;;;;;;2.15;0.50;;;30.40;79.70;;;;;;5052170;28;20058;-65
2023/02/25 01:03:51;;;;;;;2.55;0.68;;;30.40;78.00;;;;;;5049394;28;20457;-66
2023/02/25 01:06:19;;;;;;;1.77;0.43;;;30.10;76.90;;;;;;5049207;28;20028;-66
2023/02/25 01:08:47;;;;;;;1.80;0.60;;;30.00;78.50;;;;;;5050750;28;20369;-66
2023/02/25 01:11:26;;;;;;;1.52;0.70;;;30.10;78.00;;;;;;5050923;28;20025;-66
2023/02/25 01:13:55;;;;;;;5.70;0.70;;;30.00;79.20;;;;;;5050740;28;20013;-65
2023/02/25 01:16:25;;;;;;;3.17;0.93;;;29.90;77.60;;;;;;5041037;28;20025;-66
2023/02/25 01:18:53;;;;;;;4.30;0.80;;;29.80;80.00;;;;;;5050670;28;20013;-66
2023/02/25 01:21:27;;;;;;;2.00;0.82;;;29.80;80.30;;;;;;5050742;28;20033;-66
2023/02/25 01:24:00;;;;;;;2.13;0.73;;;30.00;80.80;;;;;;5048040;28;20020;-66
2023/02/25 01:26:31;;;;;;;2.80;0.60;;;30.10;80.10;;;;;;5048920;28;20489;-66
2023/02/25 01:28:59;;;;;;;3.50;0.60;;;30.30;77.30;;;;;;5049271;28;20434;-67
2023/02/25 01:31:30;;;;;;;1.65;0.60;;;30.50;75.20;;;;;;5054612;28;20028;-66
2023/02/25 01:34:02;;;;;;;3.65;0.57;;;30.80;77.40;;;;;;5050433;28;20029;-66
2023/02/25 01:36:31;;;;;;;1.88;0.40;;;30.80;69.60;;;;;;5048319;28;20715;-66
2023/02/25 01:38:59;;;;;;;0.75;0.57;;;29.80;69.70;;;;;;5050704;28;20468;-66
2023/02/25 01:41:29;;;;;;;1.48;0.50;;;29.80;72.10;;;;;;5048879;28;20097;-65
2023/02/25 01:44:24;;;;;;;1.55;0.50;;;30.00;72.30;;;;;;5049912;28;20028;-64
2023/02/25 01:46:53;;;;;;;3.47;0.32;;;30.50;77.30;;;;;;5036116;28;20072;-65
2023/02/25 01:49:34;;;;;;;2.30;0.40;;;30.80;77.10;;;;;;5036086;28;20028;-66
2023/02/25 01:52:08;;;;;;;4.53;0.50;;;31.20;73.50;;;;;;5030430;28;20104;-66
2023/02/25 01:54:38;;;;;;;2.13;0.55;;;31.30;69.60;;;;;;5049812;28;20029;-66
2023/02/25 01:57:11;;;;;;;2.88;0.50;;;31.30;66.50;;;;;;5051006;28;20169;-66
2023/02/25 01:59:40;;;;;;;3.70;0.50;;;31.50;74.60;;;;;;5049557;28;20521;-66
2023/02/25 02:02:13;;;;;;;4.78;1.05;;;31.60;70.30;;;;;;5050113;28;20052;-65
2023/02/25 02:04:42;;;;;;;3.42;0.50;;;31.30;66.70;;;;;;5043318;28;20115;-64
2023/02/25 02:07:10;;;;;;;3.17;0.73;;;30.90;66.80;;;;;;5049353;28;20037;-66
2023/02/25 02:09:39;;;;;;;1.98;0.50;;;30.70;70.80;;;;;;5049136;28;20033;-65
2023/02/25 02:12:08;;;;;;;2.08;0.93;;;30.40;69.00;;;;;;5050545;28;20053;-66
2023/02/25 02:14:40;;;;;;;3.40;0.77;;;30.50;69.10;;;;;;5050290;28;20115;-66
2023/02/25 02:17:28;;;;;;;2.00;0.60;;;30.80;69.90;;;;;;5051549;28;20052;-65
2023/02/25 02:20:06;;;;;;;1.80;0.57;;;31.00;69.70;;;;;;5049002;28;20378;-65
2023/02/25 02:22:36;;;;;;;2.40;0.50;;;31.10;69.60;;;;;;5051004;28;20119;-65
2023/02/25 02:25:35;;;;;;;1.25;0.47;;;31.30;62.60;;;;;;5051181;28;20021;-65
2023/02/25 02:28:08;;;;;;;1.88;0.30;;;31.20;62.60;;;;;;5043051;28;20119;-65
2023/02/25 02:31:12;;;;;;;1.05;0.30;;;31.40;70.20;;;;;;5051438;28;20029;-65
2023/02/25 02:34:21;;;;;;;1.27;0.47;;;31.70;66.10;;;;;;5051213;28;20444;-64
2023/02/25 02:37:24;;;;;;;1.17;0.43;;;31.90;64.20;;;;;;5021523;28;20044;-65
2023/02/25 02:40:14;;;;;;;3.53;0.40;;;32.50;61.00;;;;;;5048092;28;20162;-65
2023/02/25 02:43:04;;;;;;;2.10;0.60;;;32.30;62.60;;;;;;5050660;28;20033;-65
2023/02/25 02:45:43;;;;;;;2.22;0.50;;;32.70;62.70;;;;;;5050368;28;20052;-67
2023/02/25 02:48:24;;;;;;;2.03;0.60;;;32.70;58.60;;;;;;5049175;28;20025;-66
2023/02/25 02:50:56;;;;;;;2.60;0.40;;;32.90;60.50;;;;;;5047505;28;20025;-64
2023/02/25 02:53:39;;;;;;;3.50;0.40;;;33.00;60.80;;;;;;5033154;28;20108;-65
2023/02/25 02:56:10;;;;;;;3.47;1.00;;;33.00;62.10;;;;;;5033393;28;20310;-64
2023/02/25 02:58:47;;;;;;;1.67;0.68;;;33.00;60.50;;;;;;5049582;28;20025;-64
2023/02/25 03:01:25;;;;;;;1.67;0.43;;;33.10;56.60;;;;;;5047969;28;20055;-64
2023/02/25 03:03:58;;;;;;;0.30;0.25;;;32.50;57.30;;;;;;5050475;28;20027;-63
2023/02/25 03:06:45;;;;;;;1.40;0.50;;;31.80;58.50;;;;;;5048872;28;20028;-63
2023/02/25 03:09:19;;;;;;;5.20;1.17;;;31.30;58.90;;;;;;5046794;28;20036;-65
2023/02/25 03:11:47;;;;;;;3.78;0.55;;;31.40;60.00;;;;;;5047719;28;20147;-65
2023/02/25 03:14:15;;;;;;;4.00;0.50;;;31.60;62.00;;;;;;5050390;28;20517;-65
2023/02/25 03:17:16;;;;;;;2.58;0.60;;;32.10;60.50;;;;;;5048558;28;20037;-64
2023/02/25 03:19:52;;;;;;;3.17;0.45;;;32.50;62.40;;;;;;5047902;28;20029;-64
2023/02/25 03:22:33;;;;;;;2.60;0.82;;;33.00;60.50;;;;;;5052302;28;20430;-63
2023/02/25 03:25:23;;;;;;;2.03;0.70;;;32.80;55.90;;;;;;5065412;28;20056;-62
2023/02/25 03:27:54;;;;;;;1.05;0.30;;;32.50;58.60;;;;;;5049240;28;20810;-64
2023/02/25 03:30:29;;;;;;;1.45;0.38;;;31.90;58.20;;;;;;5043501;28;20018;-64
2023/02/25 03:33:08;;;;;;;1.25;0.50;;;31.80;57.90;;;;;;5046478;28;20044;-63
2023/02/25 03:35:36;;;;;;;1.52;0.32;;;32.00;59.60;;;;;;5050083;28;20029;-64
2023/02/25 03:38:16;;;;;;;0.73;0.45;;;32.20;57.10;;;;;;5030097;28;20079;-65
2023/02/25 03:40:45;;;;;;;1.65;0.35;;;32.50;58.00;;;;;;5042155;28;20148;-66
2023/02/25 03:43:20;;;;;;;1.17;0.30;;;33.00;58.50;;;;;;5044913;28;20439;-65
2023/02/25 03:45:48;;;;;;;2.00;0.30;;;33.00;56.00;;;;;;5046001;28;20040;-65
2023/02/25 03:48:18;;;;;;;0.73;0.32;;;32.80;52.90;;;;;;5047184;28;20028;-66
2023/02/25 03:50:53;;;;;;;3.03;0.40;;;32.90;55.20;;;;;;5046780;28;20025;-65
2023/02/25 03:53:21;;;;;;;2.88;0.40;;;32.80;57.30;;;;;;5046502;28;20052;-66
2023/02/25 03:55:49;;;;;;;1.73;0.40;;;33.00;59.00;;;;;;5046946;28;20393;-65
2023/02/25 03:58:16;;;;;;;1.90;0.50;;;33.30;57.40;;;;;;5043708;28;20547;-65
2023/02/25 04:00:48;;;;;;;2.65;0.55;;;33.40;56.50;;;;;;5047309;28;20036;-65
2023/02/25 04:03:15;;;;;;;0.98;0.43;;;33.20;53.30;;;;;;5046592;28;20067;-65
2023/02/25 04:05:42;;;;;;;3.92;0.90;;;32.20;53.40;;;;;;5045481;28;20096;-64
2023/02/25 04:08:18;;;;;;;5.88;1.45;;;31.70;57.30;;;;;;5046993;28;20048;-66
2023/02/25 04:10:46;;;;;;;3.65;1.05;;;31.20;56.80;;;;;;5046941;28;20025;-64
2023/02/25 04:13:15;;;;;;;2.78;0.47;;;31.10;58.00;;;;;;5047138;28;20086;-68
2023/02/25 04:15:44;;;;;;;2.75;0.60;;;31.20;55.20;;;;;;5046317;28;20375;-69
2023/02/25 04:18:12;;;;;;;1.20;0.57;;;30.90;53.30;;;;;;5046228;28;20048;-64
2023/02/25 04:20:40;;;;;;;5.85;1.30;;;30.70;55.00;;;;;;5044435;28;20469;-67
2023/02/25 04:23:11;;;;;;;3.05;0.57;;;30.80;57.10;;;;;;5046142;28;20021;-65
2023/02/25 04:25:38;;;;;;;1.77;0.32;;;31.00;58.40;;;;;;5047545;28;20029;-64
2023/02/25 04:28:06;;;;;;;2.22;0.65;;;31.30;59.40;;;;;;5050324;28;20032;-65
2023/02/25 04:30:33;;;;;;;0.63;0.40;;;31.60;59.00;;;;;;5044407;28;20044;-63
2023/02/25 04:33:01;;;;;;;1.20;0.50;;;32.10;58.40;;;;;;5046966;28;20098;-63
2023/02/25 04:35:28;;;;;;;2.25;0.50;;;32.20;57.20;;;;;;5047459;28;20531;-63
2023/02/25 04:37:56;;;;;;;0.68;0.30;;;32.00;55.80;;;;;;5037167;28;20029;-62
2023/02/25 04:40:24;;;;;;;1.80;0.50;;;31.90;56.40;;;;;;5044550;28;20029;-61
2023/02/25 04:42:51;;;;;;;4.18;0.65;;;30.90;55.00;;;;;;5068333;28;20036;-61
2023/02/25 04:45:24;;;;;;;2.20;0.50;;;30.30;55.20;;;;;;5047117;28;20497;-62
2023/02/25 04:47:53;;;;;;;1.03;0.37;;;29.90;57.40;;;;;;5044897;28;20393;-62
2023/02/25 04:50:21;;;;;;;1.67;0.60;;;29.70;59.40;;;;;;5045901;28;20410;-62
2023/02/25 04:52:49;;;;;;;3.63;0.40;;;29.80;60.10;;;;;;5046755;28;20025;-64
2023/02/25 04:55:17;;;;;;;0.77;0.22;;;30.00;58.30;;;;;;5047538;28;20025;-63
2023/02/25 04:57:44;;;;;;;1.77;0.50;;;30.30;58.30;;;;;;5046431;28;20025;-63
2023/02/25 05:00:23;;;;;;;3.22;0.77;;;30.50;59.20;;;;;;5048348;28;20029;-63
2023/02/25 05:02:50;;;;;;;4.25;0.80;;;30.60;58.90;;;;;;5032571;28;20028;-63
2023/02/25 05:05:18;;;;;;;5.45;0.70;;;30.80;58.50;;;;;;5048130;28;20025;-63
2023/02/25 05:07:46;;;;;;;0.70;0.30;;;30.70;58.30;;;;;;5049877;28;20398;-63
2023/02/25 05:10:14;;;;;;;0.50;0.30;;;30.80;57.00;;;;;;5043517;28;20473;-63
2023/02/25 05:12:42;;;;;;;2.25;0.55;;;30.50;57.30;;;;;;5047950;28;20052;-63
2023/02/25 05:15:11;;;;;;;3.88;0.50;;;30.40;59.10;;;;;;5048438;28;20025;-63
2023/02/25 05:17:39;;;;;;;0.65;0.35;;;30.40;58.40;;;;;;5049004;28;20486;-62
2023/02/25 05:20:11;;;;;;;1.45;0.40;;;30.20;58.00;;;;;;5050097;28;20041;-63
2023/02/25 05:22:39;;;;;;;1.40;0.30;;;30.20;58.40;;;;;;5050306;28;20021;-63
2023/02/25 05:25:08;;;;;;;0.45;0.30;;;30.10;59.90;;;;;;5050293;28;20036;-63
2023/02/25 05:27:36;;;;;;;0.80;0.22;;;30.10;59.40;;;;;;5048350;28;20516;-64
2023/02/25 05:30:03;;;;;;;2.25;0.55;;;29.90;57.70;;;;;;5049268;28;20056;-63
2023/02/25 05:32:34;;;;;;;1.73;0.63;;;30.00;59.40;;;;;;5049232;28;20537;-63
2023/02/25 05:35:01;;;;;;;1.98;0.55;;;30.30;59.50;;;;;;5041925;28;20353;-63
2023/02/25 05:37:30;;;;;;;1.88;0.50;;;30.50;57.00;;;;;;5049344;28;20033;-63
2023/02/25 05:39:58;;;;;;;2.80;0.40;;;30.50;56.60;;;;;;5049270;28;20478;-63
2023/02/25 05:42:25;;;;;;;3.13;0.65;;;30.60;57.40;;;;;;5048558;28;20029;-63
2023/02/25 05:44:52;;;;;;;3.67;0.60;;;30.50;56.90;;;;;;5048980;28;20119;-63
2023/02/25 05:47:20;;;;;;;1.65;0.32;;;30.20;56.90;;;;;;5049221;28;20120;-63
2023/02/25 05:49:47;;;;;;;2.25;0.65;;;30.10;60.60;;;;;;5049046;28;20113;-64
2023/02/25 05:52:15;;;;;;;4.20;0.60;;;30.20;58.40;;;;;;5049939;28;20359;-63
2023/02/25 05:54:42;;;;;;;1.40;0.73;;;30.20;57.20;;;;;;5047862;28;20060;-63
2023/02/25 05:57:09;;;;;;;0.68;0.30;;;30.00;57.80;;;;;;5050842;28;20572;-63
2023/02/25 05:59:37;;;;;;;1.88;0.50;;;29.90;57.90;;;;;;5050965;28;20025;-63
2023/02/25 06:02:04;;;;;;;2.65;1.00;;;29.70;57.00;;;;;;5049946;28;20095;-62
2023/02/25 06:04:32;;;;;;;2.75;0.55;;;29.60;58.90;;;;;;5050499;28;20036;-63
2023/02/25 06:07:00;;;;;;;2.83;0.70;;;29.50;60.80;;;;;;5048235;28;20035;-62
2023/02/25 06:09:28;;;;;;;1.90;0.70;;;29.40;65.00;;;;;;5050463;28;20428;-62
2023/02/25 06:11:55;;;;;;;1.55;0.50;;;29.20;64.10;;;;;;5048198;28;20029;-62
2023/02/25 06:14:22;;;;;;;5.28;0.75;;;29.10;67.00;;;;;;5050428;28;20063;-62
2023/02/25 06:16:50;;;;;;;2.35;0.77;;;28.90;67.60;;;;;;5049557;28;20033;-62
2023/02/25 06:19:17;;;;;;;2.70;0.63;;;28.70;67.80;;;;;;5049944;28;20075;-62
2023/02/25 06:21:45;;;;;;;5.05;0.80;;;28.60;68.90;;;;;;5042992;28;20034;-62
2023/02/25 06:24:14;;;;;;;3.83;0.63;;;28.60;68.20;;;;;;5031681;28;20561;-62
2023/02/25 06:26:42;;;;;;;4.00;0.55;;;28.50;68.30;;;;;;5051158;28;20516;-65
2023/02/25 06:29:10;;;;;;;1.15;0.50;;;28.50;69.90;;;;;;5050987;28;20025;-62
2023/02/25 06:31:37;;;;;;;7.28;0.63;;;28.40;69.20;;;;;;5052978;28;20072;-62
2023/02/25 06:34:05;;;;;;;2.53;0.52;;;28.30;70.00;;;;;;5058953;28;20024;-62
2023/02/25 06:36:33;;;;;;;2.78;1.20;;;28.10;71.10;;;;;;5049387;28;20033;-63
2023/02/25 06:39:01;;;;;;;2.53;0.50;;;28.10;71.80;;;;;;5044957;28;20048;-63
2023/02/25 06:41:29;;;;;;;2.35;0.47;;;28.00;72.50;;;;;;5046999;28;20033;-63
2023/02/25 06:43:57;;;;;;;3.30;0.70;;;27.90;73.50;;;;;;5047321;28;20028;-64
2023/02/25 06:46:25;;;;;;;2.58;0.60;;;27.80;73.70;;;;;;5047087;28;20375;-63
2023/02/25 06:48:54;;;;;;;2.38;0.65;;;27.50;75.00;;;;;;5049662;28;20025;-62
2023/02/25 06:51:22;;;;;;;1.50;0.52;;;27.10;77.30;;;;;;5046529;28;20021;-62
2023/02/25 06:53:51;;;;;;;10.43;1.13;;;26.80;79.40;;;;;;5047379;28;20028;-63
2023/02/25 06:56:20;;;;;;;3.97;0.65;;;26.60;81.20;;;;;;5050645;28;20485;-63
2023/02/25 06:58:47;;;;;;;7.50;1.23;;;26.70;83.10;;;;;;5050456;28;20381;-64
2023/02/25 07:01:16;;;;;;;5.85;1.15;;;26.80;84.60;;;;;;5050115;28;20033;-63
2023/02/25 07:03:44;;;;;;;4.93;2.15;;;26.90;85.30;;;;;;5048565;28;20023;-64
2023/02/25 07:06:14;;;;;;;7.43;2.38;;;27.00;86.60;;;;;;5041811;28;20028;-64
2023/02/25 07:08:42;;;;;;;1.75;0.93;;;27.10;86.70;;;;;;5048076;28;20495;-64
2023/02/25 07:11:18;;;;;;;4.07;0.60;;;27.10;87.00;;;;;;5048018;28;20091;-63
2023/02/25 07:13:50;;;;;;;3.28;0.63;;;27.00;87.40;;;;;;5040445;28;20093;-63
2023/02/25 07:16:17;;;;;;;4.72;0.70;;;26.90;88.20;;;;;;5046967;28;20531;-63
2023/02/25 07:18:45;;;;;;;3.90;1.08;;;26.80;89.30;;;;;;5047560;28;20044;-64
2023/02/25 07:21:14;;;;;;;2.30;0.82;;;26.70;90.00;;;;;;5046988;28;20033;-64
2023/02/25 07:23:42;;;;;;;3.20;0.82;;;26.60;90.70;;;;;;5047869;28;20028;-64
2023/02/25 07:26:11;;;;;;;3.50;1.08;;;26.60;91.10;;;;;;5046631;28;20358;-62
2023/02/25 07:28:39;;;;;;;2.30;0.70;;;26.50;91.80;;;;;;5047128;28;20634;-62
2023/02/25 07:31:16;;;;;;;4.07;0.65;;;26.40;91.50;;;;;;5046217;28;20078;-63
2023/02/25 07:33:44;;;;;;;4.53;0.77;;;26.30;91.60;;;;;;5048417;28;20036;-64
2023/02/25 07:36:12;;;;;;;4.68;0.70;;;26.20;92.30;;;;;;5047272;28;20074;-63
2023/02/25 07:38:49;;;;;;;3.03;0.90;;;26.10;93.00;;;;;;5049857;28;20017;-64
2023/02/25 07:41:19;;;;;;;2.95;0.63;;;25.90;93.30;;;;;;5049427;28;20033;-62
2023/02/25 07:43:46;;;;;;;3.10;0.75;;;25.80;94.30;;;;;;5049598;28;20119;-63
2023/02/25 07:46:14;;;;;;;3.58;0.70;;;25.70;95.10;;;;;;5049930;28;20071;-63
2023/02/25 07:48:41;;;;;;;4.07;1.15;;;25.60;95.60;;;;;;5049980;28;20120;-63
2023/02/25 07:51:12;;;;;;;3.55;0.77;;;25.40;96.40;;;;;;5050002;28;20493;-62
2023/02/25 07:53:40;;;;;;;1.52;0.60;;;25.30;97.30;;;;;;5048625;28;20024;-63
2023/02/25 07:56:11;;;;;;;3.13;0.57;;;25.20;98.00;;;;;;5041494;28;20040;-62
2023/02/25 07:58:39;;;;;;;3.85;0.50;;;25.10;98.30;;;;;;5056367;28;20116;-63
2023/02/25 08:01:12;;;;;;;6.95;1.05;;;25.00;99.20;;;;;;5046473;28;20063;-62
2023/02/25 08:03:39;;;;;;;4.18;0.73;;;24.80;99.90;;;;;;5047011;28;20534;-63
2023/02/25 08:06:07;;;;;;;3.70;0.80;;;24.70;99.90;;;;;;5046830;28;20033;-63
2023/02/25 08:08:38;;;;;;;1.60;0.60;;;24.60;99.90;;;;;;5045723;28;20397;-63
2023/02/25 08:11:12;;;;;;;3.63;1.00;;;24.50;99.90;;;;;;5046207;28;20029;-63
2023/02/25 08:13:40;;;;;;;2.53;0.50;;;24.30;99.90;;;;;;5047579;28;20115;-64
2023/02/25 08:16:10;;;;;;;4.10;0.90;;;24.20;99.90;;;;;;5046889;28;20041;-64
2023/02/25 08:18:41;;;;;;;3.55;1.00;;;24.10;99.90;;;;;;5046400;28;20392;-63
2023/02/25 08:21:14;;;;;;;4.13;0.80;;;23.90;99.90;;;;;;5046580;28;20119;-63
2023/02/25 08:23:41;;;;;;;3.17;0.70;;;23.80;99.90;;;;;;5035259;28;20033;-63
2023/02/25 08:26:09;;;;;;;1.77;0.60;;;23.70;99.90;;;;;;5046548;28;20043;-64
2023/02/25 08:28:38;;;;;;;5.28;1.30;;;23.60;99.90;;;;;;5029633;28;20082;-63
2023/02/25 08:31:10;;;;;;;4.00;1.05;;;23.50;99.90;;;;;;5042060;28;20029;-64
2023/02/25 08:33:39;;;;;;;4.50;0.90;;;23.40;99.90;;;;;;5046327;28;20037;-64
2023/02/25 08:36:14;;;;;;;5.63;0.98;;;23.30;99.90;;;;;;5046522;28;20731;-64
2023/02/25 08:38:43;;;;;;;5.00;1.10;;;23.20;99.90;;;;;;5046765;28;20025;-64
2023/02/25 08:41:14;;;;;;;5.45;0.93;;;23.10;99.90;;;;;;5045764;28;20040;-62
2023/02/25 08:43:41;;;;;;;3.40;0.98;;;23.00;99.90;;;;;;5045106;28;20033;-62
2023/02/25 08:46:09;;;;;;;6.75;1.38;;;22.90;99.90;;;;;;5041394;28;21061;-63
2023/02/25 08:48:37;;;;;;;4.10;1.10;;;22.80;99.90;;;;;;5043307;28;20032;-63
2023/02/25 08:51:09;;;;;;;4.97;0.93;;;22.70;99.90;;;;;;5046695;28;20086;-62
2023/02/25 08:53:38;;;;;;;5.85;1.13;;;22.60;99.90;;;;;;5044186;28;20029;-63
2023/02/25 08:56:07;;;;;;;3.47;1.10;;;22.60;99.90;;;;;;5043221;28;20532;-63
2023/02/25 08:58:35;;;;;;;3.78;0.90;;;22.50;99.90;;;;;;5041127;28;20070;-63
2023/02/25 09:01:08;;;;;;;3.78;0.73;;;22.50;99.90;;;;;;5043822;28;20051;-63
2023/02/25 09:03:36;;;;;;;8.68;1.00;;;22.50;99.90;;;;;;5043343;28;20444;-63
2023/02/25 09:06:03;;;;;;;5.95;0.80;;;22.40;99.90;;;;;;5045647;28;20569;-62
2023/02/25 09:08:31;;;;;;;2.60;1.00;;;22.30;99.90;;;;;;5038911;28;20367;-63
2023/02/25 09:10:58;;;;;;;5.25;0.82;;;22.20;99.90;;;;;;5032185;28;20025;-62
2023/02/25 09:13:26;;;;;;;4.55;0.93;;;22.10;99.90;;;;;;5047966;28;20029;-62
2023/02/25 09:15:57;;;;;;;6.25;1.13;;;22.10;99.90;;;;;;5052353;28;20056;-62
2023/02/25 09:18:25;;;;;;;5.25;1.20;;;22.00;99.90;;;;;;5052290;28;20044;-62
2023/02/25 09:20:52;;;;;;;2.10;0.60;;;22.00;99.90;;;;;;5052293;28;20127;-62
2023/02/25 09:23:20;;;;;;;4.32;1.45;;;21.90;99.90;;;;;;5052479;28;20500;-63
2023/02/25 09:25:47;;;;;;;5.15;0.95;;;21.90;99.90;;;;;;5052496;28;20032;-63
2023/02/25 09:28:15;;;;;;;5.03;0.85;;;21.80;99.90;;;;;;5052500;28;20028;-62
2023/02/25 09:30:46;;;;;;;2.22;0.63;;;21.70;99.90;;;;;;5052783;28;20021;-62
2023/02/25 09:33:14;;;;;;;2.35;0.63;;;21.70;99.90;;;;;;5052273;28;20095;-63
2023/02/25 09:35:42;;;;;;;6.97;1.17;;;21.60;99.90;;;;;;5052859;28;20021;-62
2023/02/25 09:38:10;;;;;;;4.63;1.02;;;21.60;99.90;;;;;;5051934;28;20048;-62
2023/02/25 09:40:39;;;;;;;6.25;1.05;;;21.50;99.90;;;;;;5050282;28;20037;-62
2023/02/25 09:43:19;;;;;;;3.38;0.88;;;21.50;99.90;;;;;;5052217;28;20033;-62
2023/02/25 09:45:49;;;;;;;4.65;0.88;;;21.40;99.90;;;;;;5052302;28;20036;-62
2023/02/25 09:48:44;;;;;;;4.32;1.88;;;21.40;99.90;;;;;;5052061;28;20033;-62
2023/02/25 09:51:25;;;;;;;2.17;0.95;;;21.40;99.90;;;;;;5052629;28;20028;-62
2023/02/25 09:54:09;;;;;;;3.03;0.75;;;21.40;99.90;;;;;;5051982;28;20052;-63
2023/02/25 09:56:37;;;;;;;4.03;0.63;;;21.30;99.90;;;;;;5051583;28;20040;-63
2023/02/25 09:59:14;;;;;;;3.10;1.15;;;21.20;99.90;;;;;;5051929;28;20028;-63
2023/02/25 10:01:50;;;;;;;2.85;0.50;;;21.20;99.90;;;;;;5052340;28;20039;-62
2023/02/25 10:04:50;;;;;;;3.00;0.70;;;21.10;99.90;;;;;;5051618;28;20029;-63
2023/02/25 10:07:50;;;;;;;4.25;1.02;;;21.10;99.90;;;;;;5047940;28;20390;-64
2023/02/25 10:10:29;;;;;;;2.88;0.70;;;21.00;99.90;;;;;;5051666;28;20466;-64
2023/02/25 10:13:32;;;;;;;4.78;1.45;;;20.90;99.90;;;;;;5051758;28;20474;-64
2023/02/25 10:16:26;;;;;;;5.05;0.77;;;20.80;99.90;;;;;;5046286;28;20044;-64
2023/02/25 10:19:18;;;;;;;5.47;0.90;;;20.70;99.90;;;;;;5050405;28;20134;-63
2023/02/25 10:22:08;;;;;;;3.90;0.80;;;20.70;99.90;;;;;;5040118;28;20474;-64
2023/02/25 10:24:44;;;;;;;7.50;1.10;;;20.60;99.90;;;;;;5051326;28;20079;-63
2023/02/25 10:27:36;;;;;;;6.35;0.80;;;20.50;99.90;;;;;;5052116;28;20029;-63
2023/02/25 10:30:47;;;;;;;2.97;0.60;;;20.40;99.90;;;;;;5051323;28;20107;-63
2023/02/25 10:33:23;;;;;;;2.90;0.65;;;20.40;99.90;;;;;;5043499;28;20041;-64
2023/02/25 10:36:16;;;;;;;3.47;0.70;;;20.40;99.90;;;;;;5050517;28;20047;-63
2023/02/25 10:38:53;;;;;;;2.72;0.63;;;20.40;99.90;;;;;;5047144;28;20037;-64
2023/02/25 10:41:23;;;;;;;2.60;0.77;;;20.40;99.90;;;;;;5049647;28;20529;-63
2023/02/25 10:43:55;;;;;;;3.40;0.83;;;20.40;99.90;;;;;;5050414;28;20041;-62
2023/02/25 10:46:35;;;;;;;3.65;0.90;;;20.40;99.90;;;;;;5051072;28;20761;-62
2023/02/25 10:49:15;;;;;;;7.95;0.70;;;20.30;99.90;;;;;;5050471;28;20085;-63
2023/02/25 10:52:04;;;;;;;3.78;0.73;;;20.30;99.90;;;;;;5049983;28;20041;-63
2023/02/25 10:54:34;;;;;;;2.88;0.60;;;20.20;99.90;;;;;;5049611;28;20028;-65
2023/02/25 10:57:12;;;;;;;4.95;0.88;;;20.20;99.90;;;;;;5049233;28;20051;-64
2023/02/25 10:59:42;;;;;;;5.60;1.95;;;20.10;99.90;;;;;;5050905;28;20505;-64
2023/02/25 11:02:29;;;;;;;4.35;1.50;;;20.10;99.90;;;;;;5051033;28;20039;-64
2023/02/25 11:04:57;;;;;;;4.43;1.80;;;20.00;99.90;;;;;;5049349;28;20033;-64
2023/02/25 11:07:42;;;;;;;4.53;1.23;;;19.90;99.90;;;;;;5050067;28;20482;-64
2023/02/25 11:10:22;;;;;;;6.15;1.20;;;19.80;99.90;;;;;;5050953;28;20497;-64
2023/02/25 11:12:55;;;;;;;3.67;1.23;;;19.70;99.90;;;;;;5049352;28;20033;-64
2023/02/25 11:15:35;;;;;;;3.45;0.93;;;19.50;99.90;;;;;;5050269;28;20024;-64
2023/02/25 11:18:15;;;;;;;3.53;1.00;;;19.50;99.90;;;;;;5050534;28;20545;-64
2023/02/25 11:20:51;;;;;;;5.57;1.00;;;19.50;99.90;;;;;;5050564;28;20043;-64
2023/02/25 11:23:34;;;;;;;2.30;0.80;;;19.40;99.90;;;;;;5050387;28;20021;-64
2023/02/25 11:26:05;;;;;;;3.72;0.70;;;19.30;99.90;;;;;;5049820;28;20478;-64
2023/02/25 11:28:47;;;;;;;4.60;0.90;;;19.20;99.90;;;;;;5050131;28;20140;-64
2023/02/25 11:31:22;;;;;;;3.97;0.55;;;19.20;99.90;;;;;;5049867;28;20104;-64
2023/02/25 11:33:59;;;;;;;5.38;0.90;;;19.10;99.90;;;;;;5049699;28;20058;-64
2023/02/25 11:36:36;;;;;;;4.10;0.73;;;19.10;99.90;;;;;;5030230;28;20021;-64
2023/02/25 11:39:29;;;;;;;6.18;1.33;;;19.10;99.90;;;;;;5030030;28;20036;-64
2023/02/25 11:42:23;;;;;;;7.15;0.98;;;19.10;99.90;;;;;;5030121;28;20428;-64
2023/02/25 11:44:58;;;;;;;5.30;0.80;;;19.10;99.90;;;;;;5030023;28;20044;-64
2023/02/25 11:47:36;;;;;;;2.13;0.90;;;19.00;99.90;;;;;;5034095;28;20033;-63
2023/02/25 11:50:28;;;;;;;4.43;0.55;;;19.00;99.90;;;;;;5049904;28;20064;-63
2023/02/25 11:53:23;;;;;;;4.88;1.10;;;19.00;99.90;;;;;;5029913;28;20037;-63
2023/02/25 11:56:14;;;;;;;5.10;0.90;;;18.90;99.90;;;;;;5030026;28;20029;-64
2023/02/25 11:58:59;;;;;;;3.97;1.08;;;18.80;99.90;;;;;;5030333;28;20402;-64
2023/02/25 12:01:33;;;;;;;7.63;0.90;;;18.80;99.90;;;;;;5036627;28;20029;-64
2023/02/25 12:04:21;;;;;;;5.97;0.70;;;18.80;99.90;;;;;;5029737;28;20101;-62
2023/02/25 12:07:13;;;;;;;3.38;1.10;;;18.80;99.90;;;;;;5037659;28;20025;-63
2023/02/25 12:10:00;;;;;;;7.45;0.80;;;18.80;99.90;;;;;;5049395;28;20025;-63
2023/02/25 12:13:04;;;;;;;5.80;1.30;;;18.70;99.90;;;;;;5045782;28;20020;-64
2023/02/25 12:15:40;;;;;;;3.08;0.90;;;18.70;99.90;;;;;;5049571;28;20097;-63
2023/02/25 12:18:43;;;;;;;4.75;0.95;;;18.60;99.90;;;;;;5049548;28;20029;-63
2023/02/25 12:21:32;;;;;;;7.50;0.93;;;18.60;99.90;;;;;;5049983;28;20033;-64
2023/02/25 12:24:25;;;;;;;2.78;0.80;;;18.50;99.90;;;;;;5049489;28;20359;-63
2023/02/25 12:27:34;;;;;;;2.67;0.77;;;18.50;99.90;;;;;;5046709;28;20048;-64
2023/02/25 12:30:32;;;;;;;3.75;1.08;;;18.50;99.90;;;;;;5044790;28;20029;-64
2023/02/25 12:33:21;;;;;;;4.35;1.48;;;18.40;99.90;;;;;;5029309;28;20037;-63
2023/02/25 12:36:03;;;;;;;3.45;1.70;;;18.30;99.90;;;;;;5047945;28;20032;-63
2023/02/25 12:38:46;;;;;;;7.68;1.50;;;18.30;99.90;;;;;;5059484;28;20036;-64
2023/02/25 12:41:23;;;;;;;5.38;0.77;;;18.20;99.90;;;;;;5034755;28;20033;-63
2023/02/25 12:44:32;;;;;;;4.20;0.80;;;18.20;99.90;;;;;;5050368;28;20486;-65
2023/02/25 12:47:26;;;;;;;4.72;0.80;;;18.10;99.90;;;;;;5056236;28;20044;-63
2023/02/25 12:50:21;;;;;;;2.92;0.90;;;18.10;99.90;;;;;;5033728;28;20481;-64
2023/02/25 12:53:13;;;;;;;8.93;1.05;;;18.00;99.90;;;;;;5047231;28;20025;-64
2023/02/25 12:56:07;;;;;;;3.25;1.17;;;17.90;99.90;;;;;;5048319;28;20021;-63
2023/02/25 12:58:54;;;;;;;3.05;0.85;;;17.80;99.90;;;;;;5051294;28;20592;-64
2023/02/25 13:01:31;;;;;;;3.45;0.80;;;17.80;99.90;;;;;;5052844;28;20048;-64
2023/02/25 13:04:11;;;;;;;3.35;0.80;;;17.80;99.90;;;;;;5050733;28;20485;-64
2023/02/25 13:07:04;;;;;;;4.43;0.98;;;17.70;99.90;;;;;;5064572;28;20029;-64
2023/02/25 13:09:37;;;;;;;9.32;0.98;;;17.60;99.90;;;;;;5039586;28;20025;-65
2023/02/25 13:12:33;;;;;;;6.38;1.60;;;17.60;99.90;;;;;;5049249;28;20104;-64
2023/02/25 13:15:09;;;;;;;4.32;1.35;;;17.60;99.90;;;;;;5048797;28;20048;-64
2023/02/25 13:17:55;;;;;;;3.92;0.80;;;17.50;99.90;;;;;;5044920;28;20025;-63
2023/02/25 13:20:46;;;;;;;1.98;0.90;;;17.50;99.90;;;;;;5045599;28;20506;-63
2023/02/25 13:23:50;;;;;;;3.67;1.00;;;17.60;99.90;;;;;;5046447;28;20017;-64
2023/02/25 13:26:28;;;;;;;5.25;1.10;;;17.60;99.90;;;;;;5050788;28;20036;-64